sensor_id;sensor_type;location;lat;lon;timestamp;temperature;humidity
6421;DHT22;3243;50.958;7.012;2023-07-20T00:00:06;18.00;27.90
6421;DHT22;3243;50.958;7.012;2023-07-20T00:02:33;18.00;99.90
6421;DHT22;3243;50.958;7.012;2023-07-20T00:09:55;18.00;99.90
6421;DHT22;3243;50.958;7.012;2023-07-20T00:12:22;17.90;99.90
6421;DHT22;3243;50.958;7.012;2023-07-20T00:17:15;17.90;1.00
6421;DHT22;3243;50.958;7.012;2023-07-20T00:19:42;17.90;1.00
6421;DHT22;3243;50.958;7.012;2023-07-20T00:22:09;18.00;99.90
6421;DHT22;3243;50.958;7.012;2023-07-20T00:27:07;18.10;99.90
6421;DHT22;3243;50.958;7.012;2023-07-20T00:29:34;18.10;1.00
6421;DHT22;3243;50.958;7.012;2023-07-20T00:39:25;18.20;1.00
6421;DHT22;3243;50.958;7.012;2023-07-20T00:41:52;18.20;1.00
6421;DHT22;3243;50.958;7.012;2023-07-20T00:44:19;18.20;99.90
6421;DHT22;3243;50.958;7.012;2023-07-20T00:46:46;18.20;1.00
6421;DHT22;3243;50.958;7.012;2023-07-20T00:49:14;18.20;1.00
6421;DHT22;3243;50.958;7.012;2023-07-20T00:51:41;18.20;99.90
6421;DHT22;3243;50.958;7.012;2023-07-20T00:54:08;18.20;1.00
6421;DHT22;3243;50.958;7.012;2023-07-20T00:56:36;18.10;99.90
6421;DHT22;3243;50.958;7.012;2023-07-20T00:59:03;18.10;99.90
6421;DHT22;3243;50.958;7.012;2023-07-20T01:03:57;18.00;99.90
6421;DHT22;3243;50.958;7.012;2023-07-20T01:06:36;18.00;99.90
6421;DHT22;3243;50.958;7.012;2023-07-20T01:09:13;17.80;99.90
6421;DHT22;3243;50.958;7.012;2023-07-20T01:11:49;15.30;99.90
6421;DHT22;3243;50.958;7.012;2023-07-20T01:19:16;17.80;1.00
6421;DHT22;3243;50.958;7.012;2023-07-20T01:32:17;17.90;99.90
6421;DHT22;3243;50.958;7.012;2023-07-20T01:34:45;17.90;99.90
6421;DHT22;3243;50.958;7.012;2023-07-20T01:37:15;17.90;99.90
6421;DHT22;3243;50.958;7.012;2023-07-20T01:39:43;17.80;1.00
6421;DHT22;3243;50.958;7.012;2023-07-20T01:42:11;17.80;99.90
6421;DHT22;3243;50.958;7.012;2023-07-20T01:47:05;17.70;99.90
6421;DHT22;3243;50.958;7.012;2023-07-20T01:59:21;17.80;1.00
6421;DHT22;3243;50.958;7.012;2023-07-20T02:01:48;17.80;1.00
6421;DHT22;3243;50.958;7.012;2023-07-20T02:11:36;17.70;1.00
6421;DHT22;3243;50.958;7.012;2023-07-20T02:14:03;17.70;99.90
6421;DHT22;3243;50.958;7.012;2023-07-20T02:21:24;17.60;1.00
6421;DHT22;3243;50.958;7.012;2023-07-20T02:31:13;17.40;99.90
6421;DHT22;3243;50.958;7.012;2023-07-20T02:38:34;17.10;99.90
6421;DHT22;3243;50.958;7.012;2023-07-20T02:41:01;17.10;99.90
6421;DHT22;3243;50.958;7.012;2023-07-20T02:43:27;17.00;99.90
6421;DHT22;3243;50.958;7.012;2023-07-20T02:48:22;16.90;99.90
6421;DHT22;3243;50.958;7.012;2023-07-20T02:53:16;16.90;99.90
6421;DHT22;3243;50.958;7.012;2023-07-20T02:55:43;16.90;99.90
6421;DHT22;3243;50.958;7.012;2023-07-20T03:00:36;16.80;99.90
6421;DHT22;3243;50.958;7.012;2023-07-20T03:05:30;16.90;99.90
6421;DHT22;3243;50.958;7.012;2023-07-20T03:10:29;16.90;99.90
6421;DHT22;3243;50.958;7.012;2023-07-20T03:15:23;16.90;99.90
6421;DHT22;3243;50.958;7.012;2023-07-20T03:22:45;16.80;99.90
6421;DHT22;3243;50.958;7.012;2023-07-20T03:27:40;16.90;99.90
6421;DHT22;3243;50.958;7.012;2023-07-20T03:32:36;16.90;99.90
6421;DHT22;3243;50.958;7.012;2023-07-20T03:42:24;16.80;99.90
6421;DHT22;3243;50.958;7.012;2023-07-20T03:52:13;16.80;99.90
6421;DHT22;3243;50.958;7.012;2023-07-20T04:02:01;16.80;99.90
6421;DHT22;3243;50.958;7.012;2023-07-20T04:04:28;16.90;99.90
6421;DHT22;3243;50.958;7.012;2023-07-20T04:06:54;16.90;99.90
6421;DHT22;3243;50.958;7.012;2023-07-20T04:09:21;16.90;99.90
6421;DHT22;3243;50.958;7.012;2023-07-20T04:21:40;17.10;99.90
6421;DHT22;3243;50.958;7.012;2023-07-20T04:24:10;17.10;99.90
6421;DHT22;3243;50.958;7.012;2023-07-20T04:34:00;17.30;99.90
6421;DHT22;3243;50.958;7.012;2023-07-20T04:41:21;17.40;99.90
6421;DHT22;3243;50.958;7.012;2023-07-20T04:46:15;17.50;99.90
6421;DHT22;3243;50.958;7.012;2023-07-20T05:08:22;17.80;99.90
6421;DHT22;3243;50.958;7.012;2023-07-20T05:13:16;17.90;99.90
6421;DHT22;3243;50.958;7.012;2023-07-20T05:20:37;17.80;99.90
6421;DHT22;3243;50.958;7.012;2023-07-20T05:23:04;17.70;99.90
6421;DHT22;3243;50.958;7.012;2023-07-20T05:25:32;17.70;99.90
6421;DHT22;3243;50.958;7.012;2023-07-20T05:27:59;17.60;99.90
6421;DHT22;3243;50.958;7.012;2023-07-20T05:32:55;17.70;99.90
6421;DHT22;3243;50.958;7.012;2023-07-20T05:35:22;17.90;99.90
6421;DHT22;3243;50.958;7.012;2023-07-20T05:40:16;18.00;99.90
6421;DHT22;3243;50.958;7.012;2023-07-20T05:42:46;18.00;99.90
6421;DHT22;3243;50.958;7.012;2023-07-20T05:50:07;17.90;99.90
6421;DHT22;3243;50.958;7.012;2023-07-20T05:57:29;17.80;99.90
6421;DHT22;3243;50.958;7.012;2023-07-20T05:59:56;17.80;99.90
6421;DHT22;3243;50.958;7.012;2023-07-20T06:04:50;18.00;99.90
6421;DHT22;3243;50.958;7.012;2023-07-20T06:09:44;18.10;99.90
6421;DHT22;3243;50.958;7.012;2023-07-20T06:12:11;18.30;99.90
6421;DHT22;3243;50.958;7.012;2023-07-20T06:17:05;18.70;99.90
6421;DHT22;3243;50.958;7.012;2023-07-20T06:21:59;19.00;99.90
6421;DHT22;3243;50.958;7.012;2023-07-20T06:26:53;19.00;99.90
6421;DHT22;3243;50.958;7.012;2023-07-20T06:29:20;19.10;99.90
6421;DHT22;3243;50.958;7.012;2023-07-20T06:31:46;19.30;99.90
6421;DHT22;3243;50.958;7.012;2023-07-20T06:41:38;19.20;99.90
6421;DHT22;3243;50.958;7.012;2023-07-20T06:44:07;19.60;99.90
6421;DHT22;3243;50.958;7.012;2023-07-20T06:46:34;19.90;99.90
6421;DHT22;3243;50.958;7.012;2023-07-20T06:53:58;19.90;99.90
6421;DHT22;3243;50.958;7.012;2023-07-20T06:56:25;19.90;99.90
6421;DHT22;3243;50.958;7.012;2023-07-20T07:01:20;19.90;99.90
6421;DHT22;3243;50.958;7.012;2023-07-20T07:03:48;19.80;99.90
6421;DHT22;3243;50.958;7.012;2023-07-20T07:06:21;19.60;99.90
6421;DHT22;3243;50.958;7.012;2023-07-20T07:11:17;19.80;99.90
6421;DHT22;3243;50.958;7.012;2023-07-20T07:13:44;20.20;99.90
6421;DHT22;3243;50.958;7.012;2023-07-20T07:16:13;20.40;99.90
6421;DHT22;3243;50.958;7.012;2023-07-20T07:26:09;21.40;99.90
6421;DHT22;3243;50.958;7.012;2023-07-20T07:28:36;21.40;99.90
6421;DHT22;3243;50.958;7.012;2023-07-20T07:31:07;21.30;99.90
6421;DHT22;3243;50.958;7.012;2023-07-20T07:33:33;21.40;99.90
6421;DHT22;3243;50.958;7.012;2023-07-20T07:36:01;21.30;99.90
6421;DHT22;3243;50.958;7.012;2023-07-20T07:38:28;21.30;99.90
6421;DHT22;3243;50.958;7.012;2023-07-20T07:46:09;20.70;99.90
6421;DHT22;3243;50.958;7.012;2023-07-20T07:48:36;20.60;99.90
6421;DHT22;3243;50.958;7.012;2023-07-20T07:55:59;20.40;99.90
6421;DHT22;3243;50.958;7.012;2023-07-20T07:58:25;20.60;99.90
6421;DHT22;3243;50.958;7.012;2023-07-20T08:03:19;21.10;99.90
6421;DHT22;3243;50.958;7.012;2023-07-20T08:10:41;20.60;99.90
6421;DHT22;3243;50.958;7.012;2023-07-20T08:13:08;20.80;99.90
6421;DHT22;3243;50.958;7.012;2023-07-20T08:18:01;21.20;99.90
6421;DHT22;3243;50.958;7.012;2023-07-20T08:25:24;21.00;99.90
6421;DHT22;3243;50.958;7.012;2023-07-20T08:27:51;21.10;99.90
6421;DHT22;3243;50.958;7.012;2023-07-20T08:30:21;21.20;99.90
6421;DHT22;3243;50.958;7.012;2023-07-20T08:32:48;21.50;99.90
6421;DHT22;3243;50.958;7.012;2023-07-20T08:37:42;21.40;99.90
6421;DHT22;3243;50.958;7.012;2023-07-20T08:40:10;21.30;99.90
6421;DHT22;3243;50.958;7.012;2023-07-20T08:42:37;21.00;99.90
6421;DHT22;3243;50.958;7.012;2023-07-20T08:45:06;21.50;99.90
6421;DHT22;3243;50.958;7.012;2023-07-20T08:47:34;22.00;99.90
6421;DHT22;3243;50.958;7.012;2023-07-20T08:50:03;22.40;99.90
6421;DHT22;3243;50.958;7.012;2023-07-20T08:52:34;22.30;99.90
6421;DHT22;3243;50.958;7.012;2023-07-20T08:57:33;22.10;99.90
6421;DHT22;3243;50.958;7.012;2023-07-20T09:00:02;22.40;99.90
6421;DHT22;3243;50.958;7.012;2023-07-20T09:02:35;22.70;99.90
6421;DHT22;3243;50.958;7.012;2023-07-20T09:05:04;22.70;99.90
6421;DHT22;3243;50.958;7.012;2023-07-20T09:07:32;22.80;99.90
6421;DHT22;3243;50.958;7.012;2023-07-20T09:09:58;22.70;99.90
6421;DHT22;3243;50.958;7.012;2023-07-20T09:22:16;22.10;99.90
6421;DHT22;3243;50.958;7.012;2023-07-20T09:24:44;22.30;99.90
6421;DHT22;3243;50.958;7.012;2023-07-20T09:27:11;22.50;99.90
6421;DHT22;3243;50.958;7.012;2023-07-20T09:29:49;22.80;99.90
6421;DHT22;3243;50.958;7.012;2023-07-20T09:32:19;23.40;99.90
6421;DHT22;3243;50.958;7.012;2023-07-20T09:34:52;23.70;99.90
6421;DHT22;3243;50.958;7.012;2023-07-20T09:37:23;23.60;99.90
6421;DHT22;3243;50.958;7.012;2023-07-20T09:39:52;23.20;99.90
6421;DHT22;3243;50.958;7.012;2023-07-20T09:47:23;22.40;99.90
6421;DHT22;3243;50.958;7.012;2023-07-20T09:49:59;22.60;99.90
6421;DHT22;3243;50.958;7.012;2023-07-20T09:52:29;22.70;99.90
6421;DHT22;3243;50.958;7.012;2023-07-20T09:55:00;22.60;99.90
6421;DHT22;3243;50.958;7.012;2023-07-20T10:02:30;22.40;99.90
6421;DHT22;3243;50.958;7.012;2023-07-20T10:05:03;22.40;99.90
6421;DHT22;3243;50.958;7.012;2023-07-20T10:07:36;23.10;99.90
6421;DHT22;3243;50.958;7.012;2023-07-20T10:10:06;23.30;99.90
6421;DHT22;3243;50.958;7.012;2023-07-20T10:12:37;23.70;99.90
6421;DHT22;3243;50.958;7.012;2023-07-20T10:15:29;24.10;99.90
6421;DHT22;3243;50.958;7.012;2023-07-20T10:18:12;24.20;99.90
6421;DHT22;3243;50.958;7.012;2023-07-20T10:20:41;24.40;99.90
6421;DHT22;3243;50.958;7.012;2023-07-20T10:23:31;24.20;99.90
6421;DHT22;3243;50.958;7.012;2023-07-20T10:26:01;23.90;99.90
6421;DHT22;3243;50.958;7.012;2023-07-20T10:28:27;23.70;99.90
6421;DHT22;3243;50.958;7.012;2023-07-20T10:30:54;23.70;99.90
6421;DHT22;3243;50.958;7.012;2023-07-20T10:33:22;24.10;99.90
6421;DHT22;3243;50.958;7.012;2023-07-20T10:43:48;24.50;99.90
6421;DHT22;3243;50.958;7.012;2023-07-20T10:49:12;24.30;99.90
6421;DHT22;3243;50.958;7.012;2023-07-20T10:51:48;23.90;99.90
6421;DHT22;3243;50.958;7.012;2023-07-20T10:56:47;23.70;99.90
6421;DHT22;3243;50.958;7.012;2023-07-20T10:59:37;23.50;99.90
6421;DHT22;3243;50.958;7.012;2023-07-20T11:02:08;23.50;99.90
6421;DHT22;3243;50.958;7.012;2023-07-20T11:04:41;23.50;99.90
6421;DHT22;3243;50.958;7.012;2023-07-20T11:07:09;23.60;99.90
6421;DHT22;3243;50.958;7.012;2023-07-20T11:09:37;23.80;99.90
6421;DHT22;3243;50.958;7.012;2023-07-20T11:14:57;23.80;99.90
6421;DHT22;3243;50.958;7.012;2023-07-20T11:17:30;23.70;99.90
6421;DHT22;3243;50.958;7.012;2023-07-20T11:19:59;23.70;99.90
6421;DHT22;3243;50.958;7.012;2023-07-20T11:27:27;23.20;99.90
6421;DHT22;3243;50.958;7.012;2023-07-20T11:29:55;23.40;99.90
6421;DHT22;3243;50.958;7.012;2023-07-20T11:32:23;23.40;93.70
6421;DHT22;3243;50.958;7.012;2023-07-20T11:34:50;23.70;90.30
6421;DHT22;3243;50.958;7.012;2023-07-20T11:37:18;23.70;90.20
6421;DHT22;3243;50.958;7.012;2023-07-20T11:39:45;24.00;94.10
6421;DHT22;3243;50.958;7.012;2023-07-20T11:42:13;24.20;1.00
6421;DHT22;3243;50.958;7.012;2023-07-20T11:45:02;24.30;1.00
6421;DHT22;3243;50.958;7.012;2023-07-20T11:50:03;24.30;1.00
6421;DHT22;3243;50.958;7.012;2023-07-20T11:52:30;24.10;1.00
6421;DHT22;3243;50.958;7.012;2023-07-20T11:54:57;24.20;1.00
6421;DHT22;3243;50.958;7.012;2023-07-20T12:00:00;24.60;1.00
6421;DHT22;3243;50.958;7.012;2023-07-20T12:07:27;25.00;1.00
6421;DHT22;3243;50.958;7.012;2023-07-20T12:10:24;24.90;1.00
6421;DHT22;3243;50.958;7.012;2023-07-20T12:12:52;24.60;1.00
6421;DHT22;3243;50.958;7.012;2023-07-20T12:15:20;23.70;1.00
6421;DHT22;3243;50.958;7.012;2023-07-20T12:17:51;23.60;1.00
6421;DHT22;3243;50.958;7.012;2023-07-20T12:20:45;23.50;1.00
6421;DHT22;3243;50.958;7.012;2023-07-20T12:23:12;23.30;1.00
6421;DHT22;3243;50.958;7.012;2023-07-20T12:25:40;23.20;1.00
6421;DHT22;3243;50.958;7.012;2023-07-20T12:28:09;23.10;1.00
6421;DHT22;3243;50.958;7.012;2023-07-20T12:30:40;22.90;1.00
6421;DHT22;3243;50.958;7.012;2023-07-20T12:33:08;22.90;1.00
6421;DHT22;3243;50.958;7.012;2023-07-20T12:38:02;22.90;1.00
6421;DHT22;3243;50.958;7.012;2023-07-20T12:40:29;22.90;1.00
6421;DHT22;3243;50.958;7.012;2023-07-20T12:42:57;22.90;1.00
6421;DHT22;3243;50.958;7.012;2023-07-20T12:45:24;22.80;1.00
6421;DHT22;3243;50.958;7.012;2023-07-20T12:47:51;22.80;1.00
6421;DHT22;3243;50.958;7.012;2023-07-20T12:52:45;22.90;1.00
6421;DHT22;3243;50.958;7.012;2023-07-20T12:55:11;23.00;1.00
6421;DHT22;3243;50.958;7.012;2023-07-20T12:57:40;23.10;1.00
6421;DHT22;3243;50.958;7.012;2023-07-20T13:00:09;23.50;1.00
6421;DHT22;3243;50.958;7.012;2023-07-20T13:02:37;23.70;1.00
6421;DHT22;3243;50.958;7.012;2023-07-20T13:05:04;23.70;1.00
6421;DHT22;3243;50.958;7.012;2023-07-20T13:07:34;23.90;1.00
6421;DHT22;3243;50.958;7.012;2023-07-20T13:10:05;24.10;1.00
6421;DHT22;3243;50.958;7.012;2023-07-20T13:12:33;24.40;1.00
6421;DHT22;3243;50.958;7.012;2023-07-20T13:15:08;24.30;1.00
6421;DHT22;3243;50.958;7.012;2023-07-20T13:17:36;24.50;1.00
6421;DHT22;3243;50.958;7.012;2023-07-20T13:20:04;24.10;1.00
6421;DHT22;3243;50.958;7.012;2023-07-20T13:22:33;24.30;1.00
6421;DHT22;3243;50.958;7.012;2023-07-20T13:25:00;24.40;1.00
6421;DHT22;3243;50.958;7.012;2023-07-20T13:27:27;24.40;1.00
6421;DHT22;3243;50.958;7.012;2023-07-20T13:29:54;24.50;1.00
6421;DHT22;3243;50.958;7.012;2023-07-20T13:32:21;24.40;1.00
6421;DHT22;3243;50.958;7.012;2023-07-20T13:34:50;24.50;1.00
6421;DHT22;3243;50.958;7.012;2023-07-20T13:37:17;24.70;1.00
6421;DHT22;3243;50.958;7.012;2023-07-20T13:39:44;24.80;1.00
6421;DHT22;3243;50.958;7.012;2023-07-20T13:42:11;24.80;17.50
6421;DHT22;3243;50.958;7.012;2023-07-20T13:44:39;25.00;17.80
6421;DHT22;3243;50.958;7.012;2023-07-20T13:47:06;24.80;1.00
6421;DHT22;3243;50.958;7.012;2023-07-20T13:49:35;24.60;7.40
6421;DHT22;3243;50.958;7.012;2023-07-20T13:52:11;24.60;9.20
6421;DHT22;3243;50.958;7.012;2023-07-20T13:54:41;24.30;2.90
6421;DHT22;3243;50.958;7.012;2023-07-20T13:57:15;24.30;3.70
6421;DHT22;3243;50.958;7.012;2023-07-20T13:59:44;24.40;8.30
6421;DHT22;3243;50.958;7.012;2023-07-20T14:02:13;24.30;1.00
6421;DHT22;3243;50.958;7.012;2023-07-20T14:04:43;24.50;1.00
6421;DHT22;3243;50.958;7.012;2023-07-20T14:07:10;24.40;1.00
6421;DHT22;3243;50.958;7.012;2023-07-20T14:09:38;24.70;1.50
6421;DHT22;3243;50.958;7.012;2023-07-20T14:12:24;24.90;1.00
6421;DHT22;3243;50.958;7.012;2023-07-20T14:14:53;25.50;6.30
6421;DHT22;3243;50.958;7.012;2023-07-20T14:17:19;25.20;1.00
6421;DHT22;3243;50.958;7.012;2023-07-20T14:19:46;25.50;1.00
6421;DHT22;3243;50.958;7.012;2023-07-20T14:22:13;25.30;1.00
6421;DHT22;3243;50.958;7.012;2023-07-20T14:24:40;25.50;1.00
6421;DHT22;3243;50.958;7.012;2023-07-20T14:27:07;25.50;3.20
6421;DHT22;3243;50.958;7.012;2023-07-20T14:29:33;25.40;1.00
6421;DHT22;3243;50.958;7.012;2023-07-20T14:32:03;24.90;1.00
6421;DHT22;3243;50.958;7.012;2023-07-20T14:34:32;24.90;1.00
6421;DHT22;3243;50.958;7.012;2023-07-20T14:37:03;24.80;1.00
6421;DHT22;3243;50.958;7.012;2023-07-20T14:39:30;24.90;1.00
6421;DHT22;3243;50.958;7.012;2023-07-20T14:41:58;24.60;1.00
6421;DHT22;3243;50.958;7.012;2023-07-20T14:44:25;24.30;1.00
6421;DHT22;3243;50.958;7.012;2023-07-20T14:46:51;24.30;1.00
6421;DHT22;3243;50.958;7.012;2023-07-20T14:49:38;24.70;1.00
6421;DHT22;3243;50.958;7.012;2023-07-20T14:52:05;24.20;1.00
6421;DHT22;3243;50.958;7.012;2023-07-20T14:54:41;24.30;1.00
6421;DHT22;3243;50.958;7.012;2023-07-20T14:57:08;24.20;1.00
6421;DHT22;3243;50.958;7.012;2023-07-20T14:59:41;24.00;1.00
6421;DHT22;3243;50.958;7.012;2023-07-20T15:02:08;24.00;1.00
6421;DHT22;3243;50.958;7.012;2023-07-20T15:04:35;24.10;1.00
6421;DHT22;3243;50.958;7.012;2023-07-20T15:07:02;23.90;1.00
6421;DHT22;3243;50.958;7.012;2023-07-20T15:09:29;24.10;1.00
6421;DHT22;3243;50.958;7.012;2023-07-20T15:11:56;24.20;1.00
6421;DHT22;3243;50.958;7.012;2023-07-20T15:14:23;24.10;1.00
6421;DHT22;3243;50.958;7.012;2023-07-20T15:16:49;24.60;1.00
6421;DHT22;3243;50.958;7.012;2023-07-20T15:19:16;24.90;1.00
6421;DHT22;3243;50.958;7.012;2023-07-20T15:21:43;24.90;1.00
6421;DHT22;3243;50.958;7.012;2023-07-20T15:24:10;24.80;1.00
6421;DHT22;3243;50.958;7.012;2023-07-20T15:26:38;24.80;1.00
6421;DHT22;3243;50.958;7.012;2023-07-20T15:29:05;24.80;1.00
6421;DHT22;3243;50.958;7.012;2023-07-20T15:31:32;24.80;1.00
6421;DHT22;3243;50.958;7.012;2023-07-20T15:36:29;24.50;1.00
6421;DHT22;3243;50.958;7.012;2023-07-20T15:38:56;24.30;1.00
6421;DHT22;3243;50.958;7.012;2023-07-20T15:41:24;24.20;1.00
6421;DHT22;3243;50.958;7.012;2023-07-20T15:48:46;24.30;1.00
6421;DHT22;3243;50.958;7.012;2023-07-20T15:53:41;24.30;1.00
6421;DHT22;3243;50.958;7.012;2023-07-20T15:56:08;24.50;1.00
6421;DHT22;3243;50.958;7.012;2023-07-20T15:58:35;24.60;1.00
6421;DHT22;3243;50.958;7.012;2023-07-20T16:01:01;24.40;1.00
6421;DHT22;3243;50.958;7.012;2023-07-20T16:06:02;24.10;1.00
6421;DHT22;3243;50.958;7.012;2023-07-20T16:08:30;23.90;1.00
6421;DHT22;3243;50.958;7.012;2023-07-20T16:10:57;23.70;1.00
6421;DHT22;3243;50.958;7.012;2023-07-20T16:15:52;23.80;1.00
6421;DHT22;3243;50.958;7.012;2023-07-20T16:18:20;23.80;1.00
6421;DHT22;3243;50.958;7.012;2023-07-20T16:23:14;23.60;1.00
6421;DHT22;3243;50.958;7.012;2023-07-20T16:25:45;23.50;1.00
6421;DHT22;3243;50.958;7.012;2023-07-20T16:28:12;23.50;1.00
6421;DHT22;3243;50.958;7.012;2023-07-20T16:30:39;23.60;1.00
6421;DHT22;3243;50.958;7.012;2023-07-20T16:33:06;23.60;1.00
6421;DHT22;3243;50.958;7.012;2023-07-20T16:35:37;23.40;1.00
6421;DHT22;3243;50.958;7.012;2023-07-20T16:38:07;23.20;1.00
6421;DHT22;3243;50.958;7.012;2023-07-20T16:40:38;23.30;1.00
6421;DHT22;3243;50.958;7.012;2023-07-20T16:43:07;23.50;1.00
6421;DHT22;3243;50.958;7.012;2023-07-20T16:45:34;23.50;1.00
6421;DHT22;3243;50.958;7.012;2023-07-20T16:48:01;23.40;1.00
6421;DHT22;3243;50.958;7.012;2023-07-20T16:50:28;23.50;1.00
6421;DHT22;3243;50.958;7.012;2023-07-20T16:52:55;23.50;1.00
6421;DHT22;3243;50.958;7.012;2023-07-20T16:55:21;23.60;1.00
6421;DHT22;3243;50.958;7.012;2023-07-20T17:00:16;23.50;1.00
6421;DHT22;3243;50.958;7.012;2023-07-20T17:02:43;23.30;1.00
6421;DHT22;3243;50.958;7.012;2023-07-20T17:05:10;23.10;1.00
6421;DHT22;3243;50.958;7.012;2023-07-20T17:10:06;23.30;1.00
6421;DHT22;3243;50.958;7.012;2023-07-20T17:12:37;23.30;1.00
6421;DHT22;3243;50.958;7.012;2023-07-20T17:17:32;23.20;1.00
6421;DHT22;3243;50.958;7.012;2023-07-20T17:19:59;23.20;1.00
6421;DHT22;3243;50.958;7.012;2023-07-20T17:22:29;23.20;1.00
6421;DHT22;3243;50.958;7.012;2023-07-20T17:24:56;23.20;1.00
6421;DHT22;3243;50.958;7.012;2023-07-20T17:27:25;23.20;1.00
6421;DHT22;3243;50.958;7.012;2023-07-20T17:29:52;23.10;1.00
6421;DHT22;3243;50.958;7.012;2023-07-20T17:32:21;22.80;1.00
6421;DHT22;3243;50.958;7.012;2023-07-20T17:34:48;22.90;1.00
6421;DHT22;3243;50.958;7.012;2023-07-20T17:42:13;22.80;1.00
6421;DHT22;3243;50.958;7.012;2023-07-20T17:44:43;22.80;1.00
6421;DHT22;3243;50.958;7.012;2023-07-20T17:47:10;22.80;1.00
6421;DHT22;3243;50.958;7.012;2023-07-20T17:49:40;22.70;1.00
6421;DHT22;3243;50.958;7.012;2023-07-20T17:52:07;22.70;1.00
6421;DHT22;3243;50.958;7.012;2023-07-20T17:57:01;22.60;1.00
6421;DHT22;3243;50.958;7.012;2023-07-20T17:59:29;22.60;1.00
6421;DHT22;3243;50.958;7.012;2023-07-20T18:01:56;22.60;1.00
6421;DHT22;3243;50.958;7.012;2023-07-20T18:04:23;22.40;1.00
6421;DHT22;3243;50.958;7.012;2023-07-20T18:06:49;22.40;1.00
6421;DHT22;3243;50.958;7.012;2023-07-20T18:09:16;22.40;1.00
6421;DHT22;3243;50.958;7.012;2023-07-20T18:11:43;22.30;1.00
6421;DHT22;3243;50.958;7.012;2023-07-20T18:14:10;22.20;1.00
6421;DHT22;3243;50.958;7.012;2023-07-20T18:19:04;22.20;1.00
6421;DHT22;3243;50.958;7.012;2023-07-20T18:21:32;22.10;1.00
6421;DHT22;3243;50.958;7.012;2023-07-20T18:23:59;22.10;1.00
6421;DHT22;3243;50.958;7.012;2023-07-20T18:26:25;22.00;1.00
6421;DHT22;3243;50.958;7.012;2023-07-20T18:38:46;21.90;1.00
6421;DHT22;3243;50.958;7.012;2023-07-20T18:41:12;21.90;1.00
6421;DHT22;3243;50.958;7.012;2023-07-20T18:55:56;21.50;1.00
6421;DHT22;3243;50.958;7.012;2023-07-20T18:58:23;21.50;1.00
6421;DHT22;3243;50.958;7.012;2023-07-20T19:13:10;21.10;1.00
6421;DHT22;3243;50.958;7.012;2023-07-20T19:15:37;21.10;1.00
6421;DHT22;3243;50.958;7.012;2023-07-20T19:20:31;20.80;22.40
6421;DHT22;3243;50.958;7.012;2023-07-20T19:45:05;20.10;99.90
6421;DHT22;3243;50.958;7.012;2023-07-20T19:52:26;19.90;99.90
6421;DHT22;3243;50.958;7.012;2023-07-20T19:54:53;19.80;99.90
6421;DHT22;3243;50.958;7.012;2023-07-20T20:02:17;19.80;99.90
6421;DHT22;3243;50.958;7.012;2023-07-20T20:07:32;19.80;99.90
6421;DHT22;3243;50.958;7.012;2023-07-20T20:10:02;19.80;99.90
6421;DHT22;3243;50.958;7.012;2023-07-20T20:12:30;19.70;99.90
6421;DHT22;3243;50.958;7.012;2023-07-20T20:15:00;19.70;99.90
6421;DHT22;3243;50.958;7.012;2023-07-20T20:19:54;19.70;99.90
6421;DHT22;3243;50.958;7.012;2023-07-20T20:24:48;19.50;99.90
6421;DHT22;3243;50.958;7.012;2023-07-20T20:27:15;19.50;99.90
6421;DHT22;3243;50.958;7.012;2023-07-20T20:29:42;19.50;99.90
6421;DHT22;3243;50.958;7.012;2023-07-20T20:37:07;19.50;99.90
6421;DHT22;3243;50.958;7.012;2023-07-20T20:42:02;19.50;99.90
6421;DHT22;3243;50.958;7.012;2023-07-20T20:49:31;19.60;99.90
6421;DHT22;3243;50.958;7.012;2023-07-20T20:54:25;19.60;99.90
6421;DHT22;3243;50.958;7.012;2023-07-20T20:56:52;19.70;99.90
6421;DHT22;3243;50.958;7.012;2023-07-20T20:59:20;19.70;99.90
6421;DHT22;3243;50.958;7.012;2023-07-20T21:01:48;19.60;99.90
6421;DHT22;3243;50.958;7.012;2023-07-20T21:04:15;19.80;99.90
6421;DHT22;3243;50.958;7.012;2023-07-20T21:06:42;19.80;99.90
6421;DHT22;3243;50.958;7.012;2023-07-20T21:09:09;19.80;99.90
6421;DHT22;3243;50.958;7.012;2023-07-20T21:14:03;19.10;99.90
6421;DHT22;3243;50.958;7.012;2023-07-20T21:21:24;18.40;99.90
6421;DHT22;3243;50.958;7.012;2023-07-20T21:23:53;18.20;99.90
6421;DHT22;3243;50.958;7.012;2023-07-20T21:28:47;17.90;99.90
6421;DHT22;3243;50.958;7.012;2023-07-20T21:31:14;17.80;99.90
6421;DHT22;3243;50.958;7.012;2023-07-20T21:33:41;17.70;99.90
6421;DHT22;3243;50.958;7.012;2023-07-20T21:38:35;17.60;99.90
6421;DHT22;3243;50.958;7.012;2023-07-20T21:41:04;17.60;99.90
6421;DHT22;3243;50.958;7.012;2023-07-20T21:43:31;17.50;99.90
6421;DHT22;3243;50.958;7.012;2023-07-20T21:58:16;17.30;99.90
6421;DHT22;3243;50.958;7.012;2023-07-20T22:00:46;17.20;99.90
6421;DHT22;3243;50.958;7.012;2023-07-20T22:03:18;17.10;99.90
6421;DHT22;3243;50.958;7.012;2023-07-20T22:05:49;17.10;99.90
6421;DHT22;3243;50.958;7.012;2023-07-20T22:10:49;17.20;99.90
6421;DHT22;3243;50.958;7.012;2023-07-20T22:13:20;17.20;99.90
6421;DHT22;3243;50.958;7.012;2023-07-20T22:18:18;17.00;99.90
6421;DHT22;3243;50.958;7.012;2023-07-20T22:21:02;16.90;99.90
6421;DHT22;3243;50.958;7.012;2023-07-20T22:23:33;16.80;99.90
6421;DHT22;3243;50.958;7.012;2023-07-20T22:26:00;16.70;99.90
6421;DHT22;3243;50.958;7.012;2023-07-20T22:30:58;16.60;99.90
6421;DHT22;3243;50.958;7.012;2023-07-20T22:43:17;16.60;99.90
6421;DHT22;3243;50.958;7.012;2023-07-20T22:45:47;16.60;99.90
6421;DHT22;3243;50.958;7.012;2023-07-20T22:53:14;16.70;99.90
6421;DHT22;3243;50.958;7.012;2023-07-20T22:55:45;16.70;99.90
6421;DHT22;3243;50.958;7.012;2023-07-20T23:05:34;16.70;99.90
6421;DHT22;3243;50.958;7.012;2023-07-20T23:10:29;16.60;99.90
6421;DHT22;3243;50.958;7.012;2023-07-20T23:15:23;16.60;99.90
6421;DHT22;3243;50.958;7.012;2023-07-20T23:22:46;16.70;99.90
6421;DHT22;3243;50.958;7.012;2023-07-20T23:25:17;16.70;99.90
6421;DHT22;3243;50.958;7.012;2023-07-20T23:27:45;16.70;99.90
6421;DHT22;3243;50.958;7.012;2023-07-20T23:30:13;16.70;99.90
6421;DHT22;3243;50.958;7.012;2023-07-20T23:32:41;16.70;99.90
6421;DHT22;3243;50.958;7.012;2023-07-20T23:35:08;16.60;99.90
6421;DHT22;3243;50.958;7.012;2023-07-20T23:37:39;16.60;99.90
6421;DHT22;3243;50.958;7.012;2023-07-20T23:40:06;16.60;99.90
6421;DHT22;3243;50.958;7.012;2023-07-20T23:42:39;16.50;99.90
6421;DHT22;3243;50.958;7.012;2023-07-20T23:45:06;16.50;99.90
6421;DHT22;3243;50.958;7.012;2023-07-20T23:50:00;16.40;99.90
6421;DHT22;3243;50.958;7.012;2023-07-20T23:52:27;16.30;99.90
6421;DHT22;3243;50.958;7.012;2023-07-20T23:54:55;16.30;99.90
6421;DHT22;3243;50.958;7.012;2023-07-20T23:57:21;16.20;99.90
6421;DHT22;3243;50.958;7.012;2023-07-20T23:59:50;16.20;99.90
